Time;durP1;ratioP1;P1;durP2;ratioP2;P2;SDS_P1;SDS_P2;PMS_P1;PMS_P2;Temp;Humidity;BMP_temperature;BMP_pressure;BME280_temperature;BME280_humidity;BME280_pressure;Samples;Min_cycle;Max_cycle;Signal;HPM_P1;HPM_P2
2021/12/05 00:23:10;;;;;;;57.85;47.47;;;15.90;59.80;;;;;;4938353;28;89977;-73
2021/12/05 00:25:37;;;;;;;59.35;47.75;;;15.90;59.90;;;;;;4934790;28;90320;-73
2021/12/05 00:29:10;;;;;;;58.85;47.67;;;15.90;59.80;;;;;;4943944;28;91310;-73
2021/12/05 00:31:22;;;;;;;59.78;47.80;;;15.90;59.90;;;;;;4945956;28;89933;-75
2021/12/05 01:02:34;;;;;;;57.80;47.58;;;15.80;59.60;;;;;;4928990;28;91180;-74
2021/12/05 01:15:54;;;;;;;58.10;47.05;;;15.80;59.90;;;;;;4942077;28;89622;-73
2021/12/05 01:18:20;;;;;;;57.80;47.22;;;15.80;59.90;;;;;;4937760;28;90126;-74
2021/12/05 01:20:54;;;;;;;57.58;47.25;;;15.80;59.90;;;;;;4938802;28;91291;-73
2021/12/05 01:26:11;;;;;;;57.65;47.33;;;15.80;59.70;;;;;;4925636;28;90135;-75
2021/12/05 01:29:05;;;;;;;56.97;47.53;;;15.80;59.70;;;;;;4938650;28;90245;-74
2021/12/05 01:39:38;;;;;;;57.88;47.22;;;15.80;60.30;;;;;;4929358;28;91023;-73
2021/12/05 01:47:54;;;;;;;57.90;47.65;;;15.70;59.60;;;;;;4943159;28;91726;-73
2021/12/05 01:58:29;;;;;;;58.20;47.58;;;15.70;59.90;;;;;;4938485;28;90940;-73
2021/12/05 02:07:55;;;;;;;56.85;47.30;;;15.70;59.60;;;;;;4930015;28;93323;-73
2021/12/05 02:15:09;;;;;;;57.20;47.15;;;15.70;59.60;;;;;;4928447;28;91684;-74
2021/12/05 02:37:20;;;;;;;57.45;47.10;;;15.60;59.60;;;;;;4928725;28;90467;-74
2021/12/05 02:42:22;;;;;;;57.22;46.97;;;15.60;59.60;;;;;;4928947;28;94757;-74
2021/12/05 02:44:47;;;;;;;56.55;46.95;;;15.60;59.70;;;;;;4933290;28;89232;-74
2021/12/05 02:47:20;;;;;;;56.58;47.05;;;15.60;60.00;;;;;;4924417;28;90609;-74
2021/12/05 02:49:50;;;;;;;56.55;47.13;;;15.60;59.70;;;;;;4930873;28;90143;-74
2021/12/05 02:52:25;;;;;;;57.45;47.10;;;15.60;59.50;;;;;;4928460;28;91809;-74
2021/12/05 02:54:53;;;;;;;57.13;47.03;;;15.60;59.80;;;;;;4922242;28;91558;-74
2021/12/05 02:57:31;;;;;;;57.17;47.13;;;15.60;59.90;;;;;;4915817;28;91153;-73
2021/12/05 02:59:59;;;;;;;57.08;46.95;;;15.60;59.90;;;;;;4915955;28;90486;-73
2021/12/05 03:02:37;;;;;;;56.38;47.03;;;15.60;59.60;;;;;;4920558;28;91629;-74
2021/12/05 03:05:07;;;;;;;55.85;46.90;;;15.70;59.80;;;;;;4915916;28;90168;-73
2021/12/05 03:07:38;;;;;;;56.60;47.05;;;15.60;59.60;;;;;;4927189;28;93106;-74
2021/12/05 03:10:05;;;;;;;57.60;46.97;;;15.60;59.50;;;;;;4922619;28;91748;-74
2021/12/05 03:12:33;;;;;;;56.67;46.95;;;15.60;59.70;;;;;;4919077;28;91572;-74
2021/12/05 03:15:07;;;;;;;57.78;47.22;;;15.60;59.80;;;;;;4914257;28;89959;-74
2021/12/05 03:17:33;;;;;;;57.58;47.13;;;15.60;59.90;;;;;;4917240;28;91113;-74
2021/12/05 03:19:59;;;;;;;56.50;47.03;;;15.60;59.80;;;;;;4919127;28;89531;-74
2021/12/05 03:22:24;;;;;;;58.05;47.10;;;15.60;59.80;;;;;;4924795;28;90607;-74
2021/12/05 03:24:50;;;;;;;56.00;47.05;;;15.60;59.50;;;;;;4925554;28;91030;-74
2021/12/05 03:27:16;;;;;;;55.75;46.90;;;15.60;59.80;;;;;;4907252;28;93564;-74
2021/12/05 03:29:41;;;;;;;55.25;46.50;;;15.60;59.60;;;;;;4920048;28;91194;-74
2021/12/05 03:32:07;;;;;;;57.63;46.78;;;15.60;59.70;;;;;;4926635;28;90664;-74
2021/12/05 03:34:33;;;;;;;55.67;46.92;;;15.60;59.70;;;;;;4914455;28;93903;-73
2021/12/05 03:37:01;;;;;;;56.85;46.85;;;15.60;59.80;;;;;;4921731;28;90132;-74
2021/12/05 03:39:28;;;;;;;56.00;46.80;;;15.60;59.60;;;;;;4910749;28;89680;-73
2021/12/05 03:41:55;;;;;;;56.65;47.08;;;15.60;59.50;;;;;;4919019;28;90074;-74
2021/12/05 03:44:24;;;;;;;56.75;47.00;;;15.60;59.60;;;;;;4920033;28;90773;-73
2021/12/05 03:46:52;;;;;;;57.20;46.95;;;15.60;59.60;;;;;;4925094;28;91000;-74
2021/12/05 03:49:18;;;;;;;56.75;47.10;;;15.50;59.40;;;;;;4923459;28;91050;-73
2021/12/05 03:51:48;;;;;;;57.85;47.08;;;15.60;59.60;;;;;;4905221;28;92635;-74
2021/12/05 03:54:15;;;;;;;56.35;46.75;;;15.60;59.80;;;;;;4913275;28;91696;-74
2021/12/05 03:56:41;;;;;;;56.08;47.13;;;15.60;59.80;;;;;;4923908;28;94487;-74
2021/12/05 03:59:09;;;;;;;55.88;47.08;;;15.50;59.50;;;;;;4920342;28;94655;-74
2021/12/05 04:01:35;;;;;;;56.70;46.75;;;15.60;59.50;;;;;;4913986;28;92614;-74
2021/12/05 04:04:02;;;;;;;56.60;47.20;;;15.60;59.50;;;;;;4929673;28;90299;-74
2021/12/05 04:06:28;;;;;;;56.33;47.10;;;15.60;59.50;;;;;;4917271;28;91497;-73
2021/12/05 04:08:56;;;;;;;55.45;46.70;;;15.50;59.40;;;;;;4923245;28;90612;-74
2021/12/05 04:11:29;;;;;;;55.20;46.55;;;15.50;59.50;;;;;;4929515;28;90832;-74
2021/12/05 04:13:55;;;;;;;55.72;46.75;;;15.60;59.60;;;;;;4919799;28;90097;-75
2021/12/05 04:16:21;;;;;;;55.90;46.80;;;15.50;59.50;;;;;;4923226;28;93004;-73
2021/12/05 04:18:47;;;;;;;55.80;46.85;;;15.50;59.70;;;;;;4926844;28;91394;-74
2021/12/05 04:21:14;;;;;;;56.25;46.72;;;15.50;59.70;;;;;;4923345;28;93079;-73
2021/12/05 04:23:40;;;;;;;56.03;47.15;;;15.50;59.70;;;;;;4928851;28;89778;-75
2021/12/05 04:26:07;;;;;;;56.38;46.75;;;15.50;59.80;;;;;;4937390;28;90489;-74
2021/12/05 04:28:33;;;;;;;57.65;47.33;;;15.50;59.70;;;;;;4914824;28;90575;-73
2021/12/05 04:30:59;;;;;;;55.85;46.72;;;15.50;59.30;;;;;;4925423;28;93786;-75
2021/12/05 04:33:25;;;;;;;56.10;46.78;;;15.50;59.60;;;;;;4907688;28;90034;-74
2021/12/05 04:35:51;;;;;;;55.75;46.90;;;15.50;59.50;;;;;;4915061;28;90245;-74
2021/12/05 04:38:17;;;;;;;55.70;46.67;;;15.50;59.60;;;;;;4926043;28;93040;-73
2021/12/05 04:40:45;;;;;;;56.03;46.92;;;15.50;59.70;;;;;;4929705;28;90486;-74
2021/12/05 04:43:11;;;;;;;54.83;46.53;;;15.50;59.50;;;;;;4922259;28;89851;-74
2021/12/05 04:45:36;;;;;;;56.60;46.75;;;15.50;59.70;;;;;;4924784;28;92479;-74
2021/12/05 04:48:06;;;;;;;55.83;46.58;;;15.50;59.30;;;;;;4914367;28;92751;-74
2021/12/05 04:50:32;;;;;;;55.28;46.85;;;15.40;59.40;;;;;;4929579;28;90305;-73
2021/12/05 04:52:58;;;;;;;57.38;47.03;;;15.50;59.60;;;;;;4921195;28;89933;-74
2021/12/05 04:55:25;;;;;;;56.08;47.00;;;15.40;59.60;;;;;;4915987;28;92692;-74
2021/12/05 04:57:51;;;;;;;55.83;46.72;;;15.50;59.90;;;;;;4915575;28;93796;-74
2021/12/05 05:00:22;;;;;;;56.58;47.15;;;15.70;59.80;;;;;;4916775;28;89869;-74
2021/12/05 05:02:48;;;;;;;55.87;46.97;;;15.90;59.30;;;;;;4929499;28;89208;-75
2021/12/05 05:05:14;;;;;;;56.30;46.80;;;16.10;59.10;;;;;;4920190;28;91112;-73
2021/12/05 05:07:41;;;;;;;57.25;46.72;;;16.20;58.70;;;;;;4915307;28;95114;-73
2021/12/05 05:10:12;;;;;;;56.28;46.85;;;16.40;58.30;;;;;;4919737;28;91428;-73
2021/12/05 05:12:37;;;;;;;55.85;46.80;;;16.50;58.20;;;;;;4919851;28;89598;-74
2021/12/05 05:15:04;;;;;;;56.88;47.13;;;16.60;57.80;;;;;;4932830;28;92488;-74
2021/12/05 05:17:30;;;;;;;56.75;46.95;;;16.70;57.40;;;;;;4919618;28;92356;-74
2021/12/05 05:20:01;;;;;;;56.22;46.90;;;16.80;57.80;;;;;;4921721;28;90227;-73
2021/12/05 05:22:37;;;;;;;56.63;47.10;;;16.90;57.10;;;;;;4915929;28;90131;-73
2021/12/05 05:43:57;;;;;;;56.25;46.95;;;17.30;56.50;;;;;;4920090;28;95430;-71
2021/12/05 05:46:26;;;;;;;59.45;47.13;;;17.30;56.30;;;;;;4917185;28;90821;-74
2021/12/05 05:49:00;;;;;;;56.65;47.20;;;17.30;56.30;;;;;;4913463;28;90151;-73
2021/12/05 05:51:26;;;;;;;56.53;47.15;;;17.40;56.20;;;;;;4919423;28;94130;-74
2021/12/05 05:53:51;;;;;;;56.67;47.22;;;17.50;56.20;;;;;;4928373;28;90316;-74
2021/12/05 05:56:25;;;;;;;56.30;46.90;;;17.50;56.10;;;;;;4914441;28;90564;-73
2021/12/05 05:59:01;;;;;;;56.70;46.90;;;17.40;56.00;;;;;;4919968;28;90376;-73
2021/12/05 06:03:58;;;;;;;;;;;17.40;56.10;;;;;;4909413;28;89600;-73
2021/12/05 06:06:25;;;;;;;59.22;47.05;;;17.40;56.10;;;;;;4922847;28;91496;-73
2021/12/05 06:08:50;;;;;;;56.63;46.97;;;17.40;55.90;;;;;;4900569;28;93097;-74
2021/12/05 06:11:17;;;;;;;56.15;46.85;;;17.40;56.00;;;;;;4917137;28;89880;-74
2021/12/05 06:13:44;;;;;;;57.88;47.25;;;17.30;55.90;;;;;;4927520;28;89708;-74
2021/12/05 06:16:12;;;;;;;57.00;47.05;;;17.30;56.30;;;;;;4918559;28;90619;-73
2021/12/05 06:18:39;;;;;;;57.65;47.20;;;17.30;56.20;;;;;;4925716;28;90575;-74
2021/12/05 06:21:06;;;;;;;55.95;46.67;;;17.30;56.00;;;;;;4928188;28;91974;-74
2021/12/05 06:23:33;;;;;;;56.53;46.90;;;17.30;56.00;;;;;;4924324;28;90430;-75
2021/12/05 06:25:59;;;;;;;57.00;46.95;;;17.30;55.90;;;;;;4929174;28;91422;-74
2021/12/05 06:28:35;;;;;;;57.92;47.05;;;17.20;56.00;;;;;;4924913;28;90604;-74
2021/12/05 06:41:58;;;;;;;55.63;46.70;;;16.80;56.50;;;;;;4920349;28;91434;-75
2021/12/05 06:47:11;;;;;;;55.72;46.85;;;16.70;56.50;;;;;;4908276;28;91048;-74
2021/12/05 06:49:37;;;;;;;56.30;46.72;;;16.70;56.40;;;;;;4937143;28;90785;-74
2021/12/05 06:52:03;;;;;;;55.72;46.65;;;16.60;56.60;;;;;;4935689;28;91230;-74
2021/12/05 06:54:29;;;;;;;56.42;46.95;;;16.60;56.50;;;;;;4917875;28;91259;-74
2021/12/05 06:56:55;;;;;;;55.63;46.65;;;16.60;56.40;;;;;;4925117;28;92402;-74
2021/12/05 06:59:21;;;;;;;59.35;46.78;;;16.60;56.50;;;;;;4924175;28;92625;-75
2021/12/05 07:01:46;;;;;;;56.03;46.83;;;16.60;56.50;;;;;;4930777;28;93568;-74
2021/12/05 07:04:44;;;;;;;55.60;46.80;;;16.60;56.70;;;;;;4918569;28;89861;-74
2021/12/05 07:07:02;;;;;;;57.63;46.83;;;16.60;56.70;;;;;;4926025;28;92137;-73
2021/12/05 07:09:28;;;;;;;55.30;46.55;;;16.50;56.50;;;;;;4921756;28;92104;-73
2021/12/05 07:17:07;;;;;;;58.20;46.85;;;16.50;57.00;;;;;;4918966;28;96971;-73
2021/12/05 07:19:52;;;;;;;58.33;46.85;;;16.50;56.80;;;;;;4918572;28;91729;-74
2021/12/05 07:22:24;;;;;;;56.65;46.65;;;16.50;56.90;;;;;;4929256;28;91641;-73
2021/12/05 07:24:59;;;;;;;56.60;46.95;;;16.50;57.00;;;;;;4933604;28;89265;-73
2021/12/05 07:41:19;;;;;;;57.47;46.85;;;16.50;56.90;;;;;;4924966;28;93636;-73
2021/12/05 07:43:45;;;;;;;56.05;46.92;;;16.60;56.90;;;;;;4929737;28;90611;-73
2021/12/05 07:46:11;;;;;;;58.72;46.80;;;16.60;57.00;;;;;;4919044;28;89858;-73
2021/12/05 07:48:39;;;;;;;56.78;47.13;;;16.60;56.90;;;;;;4929512;28;90313;-73
2021/12/05 07:51:21;;;;;;;59.10;46.85;;;16.70;56.90;;;;;;4925056;28;91540;-73
2021/12/05 07:54:31;;;;;;;;;;;16.70;56.90;;;;;;4917606;28;91664;-74
2021/12/05 07:57:04;;;;;;;55.90;46.80;;;16.80;56.70;;;;;;4932386;28;90602;-75
2021/12/05 08:16:00;;;;;;;59.22;47.00;;;17.00;56.30;;;;;;4922461;28;91778;-74
2021/12/05 08:18:27;;;;;;;58.13;47.25;;;17.00;56.30;;;;;;4911209;28;89851;-73
2021/12/05 08:20:53;;;;;;;57.33;47.25;;;17.00;56.70;;;;;;4907012;28;90300;-73
2021/12/05 08:23:22;;;;;;;57.38;47.45;;;17.00;57.00;;;;;;4923068;28;90433;-73
2021/12/05 08:25:55;;;;;;;60.13;47.33;;;17.00;57.40;;;;;;4919049;28;93123;-73
2021/12/05 08:30:59;;;;;;;64.80;47.33;;;17.10;57.30;;;;;;4898367;28;93515;-73
2021/12/05 08:46:26;;;;;;;64.18;47.65;;;17.70;56.80;;;;;;4920393;28;91646;-74
2021/12/05 10:09:57;;;;;;;65.38;48.40;;;18.70;52.90;;;;;;4925042;28;92648;-75
2021/12/05 10:35:51;;;;;;;66.60;48.70;;;18.70;53.20;;;;;;4918473;28;93741;-74
2021/12/05 10:38:20;;;;;;;61.00;48.47;;;18.80;53.10;;;;;;4914974;28;89679;-74
2021/12/05 10:41:21;;;;;;;68.13;48.25;;;18.80;52.90;;;;;;4909632;28;95158;-74
2021/12/05 10:43:51;;;;;;;63.00;48.25;;;18.90;52.90;;;;;;4924067;28;92171;-74
2021/12/05 10:46:19;;;;;;;65.57;48.38;;;19.00;52.80;;;;;;4922838;28;89843;-74
2021/12/05 10:49:00;;;;;;;60.47;48.25;;;19.00;52.70;;;;;;4911762;28;91100;-75
2021/12/05 10:51:29;;;;;;;65.68;48.25;;;19.10;52.50;;;;;;4913176;28;92585;-74
2021/12/05 10:54:03;;;;;;;65.05;48.17;;;19.10;52.30;;;;;;4926269;28;91708;-74
2021/12/05 10:56:33;;;;;;;62.47;48.22;;;19.20;52.40;;;;;;4922476;28;92150;-74
2021/12/05 10:59:06;;;;;;;60.85;48.10;;;19.20;52.10;;;;;;4923536;28;90239;-74
2021/12/05 11:01:47;;;;;;;60.83;48.42;;;19.30;52.10;;;;;;4925418;28;93044;-73
2021/12/05 11:04:20;;;;;;;60.40;48.05;;;19.30;52.00;;;;;;4921412;28;95576;-75
2021/12/05 11:06:57;;;;;;;62.25;48.35;;;19.30;51.80;;;;;;4926670;28;95174;-74
2021/12/05 11:09:27;;;;;;;61.03;48.45;;;19.30;51.80;;;;;;4922217;28;90111;-74
2021/12/05 11:11:55;;;;;;;65.70;48.58;;;19.30;51.70;;;;;;4920484;28;91910;-73
2021/12/05 11:14:26;;;;;;;60.90;48.42;;;19.40;51.70;;;;;;4913839;28;91503;-73
2021/12/05 11:16:59;;;;;;;59.42;48.22;;;19.30;51.80;;;;;;4922820;28;91143;-74
2021/12/05 11:19:28;;;;;;;61.58;48.65;;;19.30;51.80;;;;;;4924706;28;90198;-74
2021/12/05 11:21:57;;;;;;;61.13;48.60;;;19.30;51.70;;;;;;4922154;28;91765;-74
2021/12/05 11:24:30;;;;;;;60.70;48.53;;;19.30;51.70;;;;;;4920027;28;91225;-74
2021/12/05 11:27:04;;;;;;;60.33;48.30;;;19.30;51.70;;;;;;4931326;28;91274;-74
2021/12/05 11:29:39;;;;;;;60.10;48.30;;;19.30;51.90;;;;;;4927887;28;92019;-74
2021/12/05 11:32:09;;;;;;;62.63;48.47;;;19.30;51.80;;;;;;4913235;28;90649;-73
2021/12/05 11:34:35;;;;;;;61.90;48.22;;;19.20;51.80;;;;;;4917607;28;93523;-74
2021/12/05 11:37:01;;;;;;;61.00;48.65;;;19.20;51.80;;;;;;4913099;28;95993;-74
2021/12/05 11:39:26;;;;;;;63.22;48.47;;;19.20;51.90;;;;;;4929066;28;90275;-73
2021/12/05 11:41:52;;;;;;;61.10;48.40;;;19.20;51.90;;;;;;4918406;28;93424;-74
2021/12/05 11:44:22;;;;;;;63.72;48.22;;;19.20;51.80;;;;;;4920455;28;91220;-74
2021/12/05 11:46:48;;;;;;;59.55;48.33;;;19.20;51.80;;;;;;4917678;28;90566;-74
2021/12/05 11:49:21;;;;;;;60.45;48.13;;;19.20;51.80;;;;;;4914973;28;92308;-73
2021/12/05 11:51:55;;;;;;;59.25;48.13;;;19.20;51.80;;;;;;4917576;28;89986;-74
2021/12/05 11:54:27;;;;;;;61.90;48.20;;;19.20;51.90;;;;;;4926521;28;90669;-73
2021/12/05 11:56:57;;;;;;;63.10;48.13;;;19.10;52.00;;;;;;4922302;28;90476;-74
2021/12/05 11:59:42;;;;;;;59.75;48.33;;;19.10;52.10;;;;;;4909613;28;92046;-73
2021/12/05 12:02:13;;;;;;;60.60;48.15;;;19.00;52.00;;;;;;4920593;28;92309;-73
2021/12/05 12:04:55;;;;;;;62.55;48.50;;;19.00;52.20;;;;;;4902976;28;90665;-73
2021/12/05 12:07:21;;;;;;;60.80;48.22;;;18.90;52.20;;;;;;4912006;28;91607;-74
2021/12/05 12:09:48;;;;;;;60.10;48.25;;;18.90;52.20;;;;;;4917568;28;91613;-74
2021/12/05 12:12:15;;;;;;;61.17;48.45;;;18.90;52.40;;;;;;4914082;28;91134;-73
2021/12/05 12:14:41;;;;;;;64.70;48.47;;;18.90;52.30;;;;;;4906667;28;92457;-73
2021/12/05 12:17:12;;;;;;;62.22;48.30;;;18.90;52.30;;;;;;4913867;28;90349;-72
2021/12/05 12:19:38;;;;;;;60.65;48.25;;;18.90;52.40;;;;;;4902964;28;92062;-72
2021/12/05 12:22:05;;;;;;;60.58;48.40;;;18.90;52.20;;;;;;4910814;28;91059;-72
2021/12/05 12:24:32;;;;;;;62.22;48.45;;;18.90;52.40;;;;;;4910691;28;89973;-73
2021/12/05 12:26:58;;;;;;;61.88;48.72;;;18.90;53.40;;;;;;4909158;28;90570;-73
2021/12/05 12:29:26;;;;;;;60.65;48.53;;;18.90;54.00;;;;;;4896104;28;91738;-73
2021/12/05 12:31:52;;;;;;;59.53;48.17;;;18.90;54.30;;;;;;4918084;28;91623;-73
2021/12/05 12:34:20;;;;;;;61.53;48.55;;;19.00;53.80;;;;;;4898990;28;91940;-72
2021/12/05 12:36:49;;;;;;;62.53;48.20;;;19.00;53.60;;;;;;4903044;28;90355;-73
2021/12/05 12:39:19;;;;;;;64.82;48.53;;;19.10;53.40;;;;;;4902528;28;92180;-72
2021/12/05 12:42:16;;;;;;;60.92;48.58;;;19.10;53.20;;;;;;4914793;28;90597;-72
2021/12/05 12:45:02;;;;;;;61.33;48.25;;;19.20;52.90;;;;;;4902881;28;94358;-72
2021/12/05 12:47:41;;;;;;;62.75;48.33;;;19.20;52.80;;;;;;4908673;28;97502;-72
2021/12/05 12:50:25;;;;;;;63.78;48.55;;;19.20;52.70;;;;;;4902856;28;89674;-73
2021/12/05 12:53:02;;;;;;;65.03;48.58;;;19.20;52.30;;;;;;4911201;28;92713;-73
2021/12/05 12:55:36;;;;;;;64.07;48.55;;;19.30;52.40;;;;;;4908099;28;89965;-72
2021/12/05 12:58:05;;;;;;;63.08;49.03;;;19.30;52.60;;;;;;4921169;28;91089;-73
2021/12/05 13:00:32;;;;;;;61.15;48.72;;;19.30;52.80;;;;;;4900453;28;91623;-73
2021/12/05 13:03:12;;;;;;;65.22;48.90;;;19.30;52.70;;;;;;4907690;28;91552;-73
2021/12/05 13:11:51;;;;;;;68.18;48.88;;;19.30;52.30;;;;;;4865267;28;90361;-74
2021/12/05 13:14:18;;;;;;;69.35;50.47;;;19.30;52.20;;;;;;4902819;28;94599;-74
2021/12/05 13:16:45;;;;;;;66.55;52.10;;;19.20;52.10;;;;;;4911281;28;95208;-74
2021/12/05 13:19:26;;;;;;;66.28;51.30;;;19.20;51.80;;;;;;4909041;28;90461;-74
2021/12/05 13:21:54;;;;;;;67.28;50.55;;;19.20;52.20;;;;;;4908030;28;93391;-74
2021/12/05 13:24:30;;;;;;;69.53;51.08;;;19.20;52.10;;;;;;4903647;28;91916;-74
2021/12/05 13:27:02;;;;;;;72.55;51.65;;;19.10;51.30;;;;;;4893657;28;99043;-74
2021/12/05 13:29:29;;;;;;;68.97;51.25;;;19.10;51.10;;;;;;4904444;28;91735;-74
2021/12/05 13:32:06;;;;;;;71.65;51.38;;;19.10;51.00;;;;;;4904404;28;90863;-74
2021/12/05 13:34:59;;;;;;;71.45;51.45;;;19.10;51.30;;;;;;4909477;28;90333;-74
2021/12/05 13:37:28;;;;;;;72.57;51.33;;;19.10;51.40;;;;;;4910749;28;90329;-74
2021/12/05 13:40:17;;;;;;;70.40;51.22;;;19.10;51.60;;;;;;4895956;28;91417;-75
2021/12/05 13:42:44;;;;;;;67.00;50.80;;;19.10;51.70;;;;;;4903770;28;90562;-74
2021/12/05 13:45:14;;;;;;;71.63;51.47;;;19.20;51.80;;;;;;4893826;28;92193;-74
2021/12/05 13:47:50;;;;;;;65.97;50.60;;;19.20;51.80;;;;;;4905911;28;92995;-73
2021/12/05 13:50:21;;;;;;;68.28;51.05;;;19.30;52.00;;;;;;4907438;28;92321;-73
2021/12/05 13:53:07;;;;;;;68.47;50.95;;;19.40;51.90;;;;;;4906277;28;92300;-73
2021/12/05 13:55:40;;;;;;;66.55;50.75;;;19.50;51.70;;;;;;4903666;28;91283;-73
2021/12/05 13:58:32;;;;;;;71.20;51.17;;;19.60;51.50;;;;;;4897404;28;93246;-74
2021/12/05 14:01:03;;;;;;;66.65;50.85;;;19.70;51.50;;;;;;4901502;28;91608;-73
2021/12/05 14:03:37;;;;;;;;;;;19.90;51.40;;;;;;4904871;28;90661;-74
2021/12/05 14:06:03;;;;;;;65.10;50.42;;;19.90;51.20;;;;;;4897503;28;91787;-73
2021/12/05 14:08:30;;;;;;;65.88;50.13;;;20.10;51.20;;;;;;4902992;28;89885;-73
2021/12/05 14:10:55;;;;;;;64.78;50.45;;;20.10;50.90;;;;;;4913745;28;90154;-73
2021/12/05 14:13:21;;;;;;;66.82;50.65;;;20.10;50.80;;;;;;4899058;28;90013;-74
2021/12/05 14:15:59;;;;;;;65.63;50.40;;;20.20;50.80;;;;;;4908398;28;91072;-74
2021/12/05 14:18:24;;;;;;;69.13;50.45;;;20.20;50.60;;;;;;4913095;28;91963;-73
2021/12/05 14:20:50;;;;;;;62.92;49.88;;;20.30;50.70;;;;;;4897776;28;92170;-73
2021/12/05 14:23:22;;;;;;;73.35;50.40;;;20.30;50.60;;;;;;4905457;28;90617;-73
2021/12/05 14:25:47;;;;;;;63.78;49.97;;;20.30;50.60;;;;;;4907057;28;90878;-74
2021/12/05 14:28:14;;;;;;;64.63;50.28;;;20.20;50.40;;;;;;4908323;28;92604;-73
2021/12/05 14:30:41;;;;;;;62.95;50.10;;;20.30;50.40;;;;;;4930389;28;89776;-74
2021/12/05 14:33:07;;;;;;;64.65;49.85;;;20.20;50.40;;;;;;4909002;28;89547;-74
2021/12/05 14:35:37;;;;;;;63.53;49.65;;;20.20;50.40;;;;;;4921748;28;92305;-74
2021/12/05 14:38:03;;;;;;;62.85;49.88;;;20.20;51.00;;;;;;4903227;28;96082;-74
2021/12/05 14:40:31;;;;;;;65.53;49.88;;;20.20;50.40;;;;;;4913663;28;92534;-74
2021/12/05 14:43:03;;;;;;;64.22;49.78;;;20.20;50.40;;;;;;4911975;28;92658;-74
2021/12/05 14:45:32;;;;;;;62.55;49.70;;;20.20;50.60;;;;;;4909657;28;91884;-74
2021/12/05 14:48:02;;;;;;;65.25;49.67;;;20.20;50.60;;;;;;4917094;28;92032;-74
2021/12/05 14:50:31;;;;;;;61.80;49.80;;;20.10;50.60;;;;;;4909513;28;93601;-75
2021/12/05 14:53:00;;;;;;;63.42;49.60;;;20.10;50.60;;;;;;4915926;28;91584;-74
2021/12/05 14:55:27;;;;;;;62.03;50.00;;;20.10;50.60;;;;;;4916974;28;92303;-74
2021/12/05 14:57:58;;;;;;;64.20;51.22;;;20.00;50.80;;;;;;4906522;28;94289;-74
2021/12/05 15:00:26;;;;;;;62.85;50.70;;;20.00;50.70;;;;;;4909256;28;90489;-74
2021/12/05 15:03:09;;;;;;;68.85;51.08;;;20.00;50.90;;;;;;4904815;28;92055;-73
2021/12/05 15:05:37;;;;;;;65.03;50.75;;;19.90;51.00;;;;;;4914389;28;93373;-74
2021/12/05 15:08:07;;;;;;;66.40;50.88;;;19.90;51.10;;;;;;4912699;28;92232;-73
2021/12/05 15:10:34;;;;;;;64.25;50.38;;;19.90;51.30;;;;;;4908714;28;90494;-73
2021/12/05 15:13:00;;;;;;;65.22;50.63;;;19.90;51.40;;;;;;4898307;28;90692;-73
2021/12/05 15:15:26;;;;;;;64.90;50.63;;;19.90;51.40;;;;;;4908129;28;90734;-74
2021/12/05 15:17:54;;;;;;;69.60;51.10;;;19.90;51.50;;;;;;4920039;28;89907;-73
2021/12/05 15:20:22;;;;;;;67.82;50.78;;;19.80;51.50;;;;;;4908467;28;89927;-73
2021/12/05 15:22:54;;;;;;;63.28;50.60;;;19.80;51.50;;;;;;4921887;28;88834;-73
2021/12/05 15:25:24;;;;;;;68.68;50.78;;;19.80;51.60;;;;;;4918549;28;90998;-73
2021/12/05 15:27:50;;;;;;;63.63;50.47;;;19.80;51.70;;;;;;4912366;28;93619;-73
2021/12/05 15:30:21;;;;;;;67.18;50.60;;;19.80;51.50;;;;;;4910024;28;92230;-73
2021/12/05 15:32:53;;;;;;;62.90;50.45;;;19.80;51.60;;;;;;4918199;28;89559;-73
2021/12/05 15:35:19;;;;;;;;;;;19.80;51.70;;;;;;4928177;28;92868;-74
2021/12/05 15:37:51;;;;;;;66.28;50.42;;;19.70;51.70;;;;;;4916046;28;90472;-73
2021/12/05 15:40:17;;;;;;;65.88;50.47;;;19.70;52.40;;;;;;4919382;28;90628;-73
2021/12/05 15:42:43;;;;;;;63.72;50.60;;;19.70;51.80;;;;;;4925573;28;90311;-72
2021/12/05 15:45:11;;;;;;;64.57;50.20;;;19.60;51.60;;;;;;4920931;28;91416;-73
2021/12/05 15:47:39;;;;;;;64.00;50.33;;;19.60;51.90;;;;;;4912000;28;92859;-73
2021/12/05 15:50:39;;;;;;;64.32;50.05;;;19.60;51.50;;;;;;4915640;28;92058;-73
2021/12/05 15:53:11;;;;;;;64.82;50.15;;;19.70;51.70;;;;;;4920656;28;90653;-74
2021/12/05 15:55:46;;;;;;;65.55;50.58;;;19.70;51.70;;;;;;4924422;28;92066;-73
2021/12/05 15:58:18;;;;;;;68.82;50.35;;;19.70;52.00;;;;;;4930034;28;91410;-73
2021/12/05 16:01:13;;;;;;;64.78;50.53;;;19.60;52.00;;;;;;4903315;28;97301;-73
2021/12/05 16:03:44;;;;;;;64.72;50.40;;;19.70;52.00;;;;;;4906737;28;91459;-73
2021/12/05 16:06:13;;;;;;;62.88;50.30;;;19.70;52.10;;;;;;4910787;28;92361;-75
2021/12/05 16:08:40;;;;;;;63.25;50.30;;;19.70;52.30;;;;;;4916552;28;92640;-73
2021/12/05 16:11:12;;;;;;;64.78;50.35;;;19.70;52.20;;;;;;4924064;28;90413;-73
2021/12/05 16:13:41;;;;;;;;;;;19.70;51.90;;;;;;4915283;28;89411;-73
2021/12/05 16:16:11;;;;;;;65.47;50.20;;;19.70;51.90;;;;;;4907438;28;96555;-73
2021/12/05 16:18:38;;;;;;;66.05;50.72;;;19.70;52.00;;;;;;4905766;28;91421;-72
2021/12/05 16:21:17;;;;;;;63.85;50.28;;;19.70;52.30;;;;;;4921539;28;91805;-73
2021/12/05 16:23:43;;;;;;;66.07;50.08;;;19.70;52.00;;;;;;4923826;28;90110;-73
2021/12/05 16:26:14;;;;;;;66.22;50.20;;;19.70;51.90;;;;;;4919074;28;91764;-72
2021/12/05 16:28:39;;;;;;;69.00;49.97;;;19.70;52.10;;;;;;4924039;28;90350;-74
2021/12/05 16:31:10;;;;;;;65.63;50.72;;;19.50;51.80;;;;;;4896395;28;90577;-73
2021/12/05 16:33:37;;;;;;;63.75;50.35;;;19.20;52.20;;;;;;4916498;28;92323;-74
2021/12/05 16:36:04;;;;;;;63.35;50.50;;;19.00;52.70;;;;;;4924175;28;91442;-74
2021/12/05 16:38:42;;;;;;;63.00;50.20;;;18.80;53.10;;;;;;4909925;28;92758;-75
2021/12/05 16:41:13;;;;;;;64.07;50.53;;;18.60;53.90;;;;;;4908368;28;90429;-75
2021/12/05 16:43:57;;;;;;;63.28;50.60;;;18.60;55.60;;;;;;4919597;28;91729;-75
2021/12/05 16:46:28;;;;;;;64.03;50.53;;;18.50;57.70;;;;;;4930362;28;92002;-75
2021/12/05 16:48:57;;;;;;;64.43;50.35;;;18.40;56.20;;;;;;4922738;28;91638;-75
2021/12/05 16:51:43;;;;;;;64.03;50.42;;;18.40;56.70;;;;;;4925085;28;91023;-75
2021/12/05 16:54:37;;;;;;;66.55;50.50;;;18.30;57.20;;;;;;4927344;28;90120;-76
2021/12/05 16:57:11;;;;;;;65.57;51.38;;;18.30;57.80;;;;;;4922483;28;90390;-76
2021/12/05 16:59:37;;;;;;;65.00;50.80;;;18.30;57.30;;;;;;4925300;28;90418;-75
2021/12/05 17:02:12;;;;;;;67.38;51.00;;;18.20;56.90;;;;;;4930495;28;90156;-76
2021/12/05 17:05:11;;;;;;;67.05;51.22;;;18.30;56.80;;;;;;4907552;28;90084;-76
2021/12/05 17:07:44;;;;;;;63.42;50.70;;;18.20;57.10;;;;;;4924977;28;90513;-76
2021/12/05 17:10:24;;;;;;;65.68;51.05;;;18.20;57.70;;;;;;4928227;28;90320;-76
2021/12/05 17:13:15;;;;;;;63.80;50.67;;;18.20;57.90;;;;;;4925636;28;91421;-76
2021/12/05 17:15:48;;;;;;;65.82;52.10;;;18.20;58.00;;;;;;4918655;28;91013;-75
2021/12/05 17:18:40;;;;;;;67.68;51.65;;;18.20;59.50;;;;;;4908575;28;91744;-76
2021/12/05 17:21:21;;;;;;;68.47;51.83;;;18.30;58.30;;;;;;4928415;28;91269;-74
2021/12/05 17:23:50;;;;;;;;;;;18.30;58.40;;;;;;4915302;28;90922;-74
2021/12/05 17:26:20;;;;;;;68.20;51.92;;;18.30;58.40;;;;;;4908602;28;91243;-73
2021/12/05 17:29:17;;;;;;;66.38;51.80;;;18.30;59.10;;;;;;4918456;28;92087;-73
2021/12/05 17:31:53;;;;;;;68.97;51.55;;;18.40;59.30;;;;;;4912319;28;91814;-74
2021/12/05 17:34:30;;;;;;;66.85;51.65;;;18.40;61.50;;;;;;4923025;28;89920;-73
2021/12/05 17:37:00;;;;;;;66.22;51.90;;;18.40;61.20;;;;;;4930232;28;89496;-76
2021/12/05 17:39:31;;;;;;;72.23;53.00;;;18.40;62.50;;;;;;4923658;28;92392;-74
2021/12/05 17:42:09;;;;;;;67.97;52.05;;;18.40;70.50;;;;;;4917908;28;90588;-74
2021/12/05 17:44:35;;;;;;;68.45;51.72;;;18.40;69.00;;;;;;4908391;28;90775;-75
2021/12/05 17:47:05;;;;;;;71.70;53.20;;;18.40;68.10;;;;;;4919774;28;90456;-73
2021/12/05 17:49:33;;;;;;;70.25;53.10;;;18.40;71.40;;;;;;4908781;28;90408;-74
2021/12/05 17:52:01;;;;;;;65.72;52.72;;;18.40;72.60;;;;;;4907683;28;93873;-74
2021/12/05 17:54:36;;;;;;;68.68;51.45;;;18.40;72.00;;;;;;4905930;28;92791;-73
2021/12/05 17:57:12;;;;;;;70.65;52.05;;;18.50;69.40;;;;;;4914057;28;89495;-74
2021/12/05 18:05:18;;;;;;;68.18;51.70;;;18.50;65.60;;;;;;4907924;28;91562;-74
2021/12/05 18:07:44;;;;;;;66.05;51.05;;;18.60;65.10;;;;;;4910964;28;90026;-74
2021/12/05 18:10:11;;;;;;;70.57;51.38;;;18.50;64.40;;;;;;4923138;28;92760;-75